Time;durP1;ratioP1;P1;durP2;ratioP2;P2;SDS_P1;SDS_P2;PMS_P1;PMS_P2;Temp;Humidity;BMP_temperature;BMP_pressure;BME280_temperature;BME280_humidity;BME280_pressure;Samples;Min_cycle;Max_cycle;Signal;HPM_P1;HPM_P2
2024/01/06 00:41:43;;;;;;;0.10;0.10;;;;;;;;;;5057187;28;20051;-94
2024/01/06 00:44:09;;;;;;;0.08;0.08;;;;;;;;;;5054143;28;20045;-93
2024/01/06 00:46:35;;;;;;;0.10;0.10;;;;;;;;;;5077068;28;20039;-93
2024/01/06 00:49:01;;;;;;;0.10;0.10;;;;;;;;;;5073419;28;20024;-94
2024/01/06 00:51:28;;;;;;;0.00;0.00;;;;;;;;;;5077933;28;20006;-93
2024/01/06 00:53:54;;;;;;;0.10;0.10;;;;;;;;;;5062628;28;20045;-92
2024/01/06 00:56:19;;;;;;;0.00;0.00;;;;;;;;;;5069723;28;20022;-94
2024/01/06 00:58:46;;;;;;;0.00;0.00;;;;;;;;;;5063541;28;20030;-94
2024/01/06 01:01:12;;;;;;;0.00;0.00;;;;;;;;;;5074246;28;20009;-93
2024/01/06 01:03:37;;;;;;;0.10;0.10;;;;;;;;;;5079595;28;20033;-93
2024/01/06 01:06:04;;;;;;;0.10;0.10;;;;;;;;;;5073249;28;20041;-93
2024/01/06 01:08:30;;;;;;;0.10;0.10;;;;;;;;;;5064813;28;20010;-92
2024/01/06 01:10:56;;;;;;;0.10;0.10;;;;;;;;;;5069244;28;20085;-93
2024/01/06 01:13:23;;;;;;;0.00;0.00;;;;;;;;;;5055131;28;20026;-93
2024/01/06 01:15:49;;;;;;;0.00;0.00;;;;;;;;;;5066270;28;20035;-94
2024/01/06 01:18:15;;;;;;;0.00;0.00;;;;;;;;;;5077792;28;20044;-93
2024/01/06 01:20:43;;;;;;;0.10;0.10;;;;;;;;;;5086418;28;20033;-93
2024/01/06 01:23:10;;;;;;;0.05;0.05;;;;;;;;;;5070087;28;20033;-92
2024/01/06 01:25:35;;;;;;;0.10;0.10;;;;;;;;;;5063328;28;20036;-93
2024/01/06 01:28:01;;;;;;;0.10;0.10;;;;;;;;;;5084182;28;20085;-92
2024/01/06 01:30:27;;;;;;;0.10;0.10;;;;;;;;;;5078640;28;20033;-93
2024/01/06 01:32:53;;;;;;;0.10;0.10;;;;;;;;;;5077476;28;20016;-93
2024/01/06 01:35:19;;;;;;;0.10;0.10;;;;;;;;;;5063439;28;20045;-93
2024/01/06 01:37:45;;;;;;;0.10;0.10;;;;;;;;;;5073123;28;20076;-94
2024/01/06 01:40:11;;;;;;;0.10;0.10;;;;;;;;;;5068310;28;20057;-92
2024/01/06 01:42:37;;;;;;;0.10;0.10;;;;;;;;;;5077191;28;20028;-93
2024/01/06 01:45:04;;;;;;;0.10;0.10;;;6.80;99.90;;;;;;5076061;28;20029;-92
2024/01/06 01:47:30;;;;;;;0.00;0.00;;;;;;;;;;5060164;28;20045;-92
2024/01/06 01:49:57;;;;;;;0.00;0.00;;;;;;;;;;5089199;28;20033;-92
2024/01/06 01:52:23;;;;;;;0.10;0.10;;;;;;;;;;5076411;28;20010;-94
2024/01/06 01:54:49;;;;;;;0.10;0.10;;;;;;;;;;5076597;28;20017;-94
2024/01/06 01:57:15;;;;;;;0.10;0.10;;;;;;;;;;5076040;28;20063;-93
2024/01/06 01:59:42;;;;;;;0.10;0.10;;;;;;;;;;5072636;28;20086;-93
2024/01/06 02:02:09;;;;;;;0.10;0.10;;;;;;;;;;5075974;28;20009;-93
2024/01/06 02:04:35;;;;;;;0.10;0.10;;;;;;;;;;5076441;28;20032;-93
2024/01/06 02:07:01;;;;;;;0.10;0.10;;;;;;;;;;5076747;28;20033;-93
2024/01/06 02:09:29;;;;;;;0.10;0.10;;;;;;;;;;5076624;28;20047;-92
2024/01/06 02:12:06;;;;;;;0.10;0.10;;;;;;;;;;5065195;28;20005;-91
2024/01/06 02:14:32;;;;;;;0.10;0.10;;;;;;;;;;5079673;28;20017;-93
2024/01/06 02:16:59;;;;;;;0.10;0.10;;;;;;;;;;5059639;28;20005;-93
2024/01/06 02:19:25;;;;;;;0.10;0.10;;;;;;;;;;5080829;28;20048;-94
2024/01/06 02:21:54;;;;;;;0.10;0.10;;;;;;;;;;5077796;28;20041;-93
2024/01/06 02:24:20;;;;;;;0.10;0.10;;;;;;;;;;5076232;28;20010;-92
2024/01/06 02:26:47;;;;;;;0.08;0.08;;;;;;;;;;5073378;28;20014;-92
2024/01/06 02:29:12;;;;;;;0.10;0.10;;;;;;;;;;5074911;28;20049;-93
2024/01/06 02:31:38;;;;;;;0.00;0.00;;;;;;;;;;5084342;28;20010;-93
2024/01/06 02:34:04;;;;;;;0.10;0.10;;;;;;;;;;5081739;28;20022;-94
2024/01/06 02:36:31;;;;;;;0.10;0.10;;;;;;;;;;5079714;28;20040;-93
2024/01/06 02:38:56;;;;;;;0.10;0.10;;;;;;;;;;5073019;28;20080;-93
2024/01/06 02:41:22;;;;;;;0.10;0.10;;;;;;;;;;5076712;28;20037;-93
2024/01/06 02:43:48;;;;;;;0.10;0.10;;;;;;;;;;5080150;28;20041;-93
2024/01/06 02:46:14;;;;;;;0.10;0.10;;;;;;;;;;5076181;28;20020;-94
2024/01/06 02:48:40;;;;;;;0.10;0.10;;;;;;;;;;5071855;28;20030;-94
2024/01/06 02:51:06;;;;;;;0.10;0.10;;;;;;;;;;5070847;28;20028;-92
2024/01/06 02:53:32;;;;;;;0.10;0.10;;;;;;;;;;5077855;28;20045;-93
2024/01/06 02:55:58;;;;;;;0.10;0.10;;;;;;;;;;5075216;28;20033;-95
2024/01/06 02:58:24;;;;;;;0.10;0.10;;;;;;;;;;5074277;28;20029;-94
2024/01/06 03:00:51;;;;;;;0.10;0.10;;;;;;;;;;5075269;28;20025;-94
2024/01/06 03:03:17;;;;;;;0.10;0.10;;;;;;;;;;5074640;28;20029;-94
2024/01/06 03:05:43;;;;;;;0.10;0.10;;;;;;;;;;5075639;28;20101;-93
2024/01/06 03:08:09;;;;;;;0.10;0.10;;;;;;;;;;5054635;28;20080;-93
2024/01/06 03:10:36;;;;;;;0.10;0.10;;;;;;;;;;5057974;28;20097;-95
2024/01/06 03:13:02;;;;;;;0.10;0.10;;;;;;;;;;5075457;28;20005;-95
2024/01/06 03:15:28;;;;;;;0.10;0.10;;;;;;;;;;5079792;28;20029;-94
2024/01/06 03:17:54;;;;;;;0.10;0.10;;;;;;;;;;5058711;28;20048;-93
2024/01/06 03:20:20;;;;;;;0.10;0.10;;;;;;;;;;5073871;28;20085;-93
2024/01/06 03:22:46;;;;;;;0.10;0.10;;;;;;;;;;5075275;28;20029;-94
2024/01/06 03:25:12;;;;;;;0.10;0.10;;;;;;;;;;5063862;28;20566;-94
2024/01/06 03:27:38;;;;;;;0.10;0.10;;;;;;;;;;5075411;28;20357;-92
2024/01/06 03:30:05;;;;;;;0.10;0.10;;;;;;;;;;5081900;28;20010;-94
2024/01/06 03:32:31;;;;;;;0.10;0.10;;;;;;;;;;5083410;28;20033;-93
2024/01/06 03:34:57;;;;;;;0.10;0.10;;;;;;;;;;5075229;28;20040;-94
2024/01/06 03:37:23;;;;;;;0.10;0.10;;;;;;;;;;5080163;28;20036;-93
2024/01/06 03:39:49;;;;;;;0.10;0.10;;;;;;;;;;5078244;28;20025;-94
2024/01/06 03:42:15;;;;;;;0.10;0.10;;;;;;;;;;5080427;28;20024;-93
2024/01/06 03:44:41;;;;;;;0.10;0.10;;;;;;;;;;5069062;28;20036;-95
2024/01/06 03:47:07;;;;;;;0.10;0.10;;;;;;;;;;5074074;28;20009;-93
2024/01/06 03:49:33;;;;;;;0.10;0.10;;;;;;;;;;5074038;28;20028;-94
2024/01/06 03:51:59;;;;;;;0.10;0.10;;;;;;;;;;5071032;28;20018;-93
2024/01/06 03:54:25;;;;;;;0.10;0.10;;;;;;;;;;5070913;28;20009;-92
2024/01/06 03:56:51;;;;;;;0.10;0.10;;;;;;;;;;5073044;28;20074;-95
2024/01/06 03:59:17;;;;;;;0.10;0.10;;;;;;;;;;5079951;28;20077;-93
2024/01/06 04:01:43;;;;;;;0.10;0.10;;;;;;;;;;5074283;28;20021;-93
2024/01/06 04:04:09;;;;;;;0.10;0.10;;;;;;;;;;5071587;28;20014;-94
2024/01/06 04:06:35;;;;;;;0.10;0.10;;;;;;;;;;5080465;28;20052;-93
2024/01/06 04:09:01;;;;;;;0.10;0.10;;;;;;;;;;5063515;28;20064;-93
2024/01/06 04:11:27;;;;;;;0.10;0.10;;;;;;;;;;5073755;28;20009;-93
2024/01/06 04:13:53;;;;;;;0.10;0.10;;;;;;;;;;5077162;28;20017;-93
2024/01/06 04:16:20;;;;;;;0.10;0.10;;;;;;;;;;5071548;28;20014;-93
2024/01/06 04:18:46;;;;;;;0.00;0.00;;;;;;;;;;5074491;28;20060;-94
2024/01/06 04:21:12;;;;;;;0.10;0.10;;;;;;;;;;5057497;28;20009;-93
2024/01/06 04:23:38;;;;;;;0.10;0.10;;;;;;;;;;5077278;28;20045;-93
2024/01/06 04:26:05;;;;;;;0.10;0.10;;;;;;;;;;5073618;28;20006;-93
2024/01/06 04:28:31;;;;;;;0.10;0.10;;;;;;;;;;5057359;28;20044;-93
2024/01/06 04:30:57;;;;;;;0.10;0.10;;;;;;;;;;5073659;28;20021;-94
2024/01/06 04:33:23;;;;;;;0.10;0.10;;;;;;;;;;5055937;28;20037;-92
2024/01/06 04:35:50;;;;;;;0.10;0.10;;;;;;;;;;5069630;28;20014;-92
2024/01/06 04:38:16;;;;;;;0.00;0.00;;;;;;;;;;5062053;28;20041;-92
2024/01/06 04:40:43;;;;;;;0.10;0.10;;;;;;;;;;5081302;28;20041;-92
2024/01/06 04:43:09;;;;;;;0.10;0.10;;;;;;;;;;5058769;28;20009;-92
2024/01/06 04:45:37;;;;;;;0.10;0.10;;;;;;;;;;5074932;28;20036;-93
2024/01/06 04:48:05;;;;;;;0.10;0.10;;;;;;;;;;5051081;28;20017;-93
2024/01/06 04:50:31;;;;;;;0.00;0.00;;;;;;;;;;5084125;28;20029;-93
2024/01/06 04:52:57;;;;;;;0.10;0.10;;;;;;;;;;5083327;28;20016;-93
2024/01/06 04:55:23;;;;;;;0.10;0.10;;;;;;;;;;5071016;28;20177;-93
2024/01/06 04:57:50;;;;;;;0.10;0.10;;;;;;;;;;5085558;28;20020;-93
2024/01/06 05:00:16;;;;;;;0.10;0.10;;;;;;;;;;5080444;28;20018;-93
2024/01/06 05:02:42;;;;;;;0.10;0.10;;;;;;;;;;5065085;28;20010;-94
2024/01/06 05:05:08;;;;;;;0.10;0.10;;;;;;;;;;5082199;28;20072;-95
2024/01/06 05:17:55;;;;;;;0.10;0.10;;;6.60;99.90;;;;;;5067059;28;20033;-89
2024/01/06 05:20:21;;;;;;;0.10;0.10;;;;;;;;;;5068182;28;20032;-89
2024/01/06 05:22:47;;;;;;;0.10;0.10;;;;;;;;;;5069720;28;20028;-88
2024/01/06 05:25:14;;;;;;;0.10;0.10;;;;;;;;;;5065530;28;20054;-88
2024/01/06 05:27:40;;;;;;;0.10;0.10;;;;;;;;;;5066821;28;20035;-88
2024/01/06 05:30:08;;;;;;;0.00;0.00;;;;;;;;;;5051002;22;20042;-95
2024/01/06 05:32:34;;;;;;;0.10;0.10;;;;;;;;;;4990768;28;20031;-94
2024/01/06 05:35:00;;;;;;;0.10;0.10;;;;;;;;;;4994462;28;20030;-93
2024/01/06 05:37:26;;;;;;;0.10;0.10;;;;;;;;;;4993323;28;20046;-93
2024/01/06 05:39:52;;;;;;;0.10;0.10;;;;;;;;;;5021842;28;20003;-93
2024/01/06 05:42:18;;;;;;;0.10;0.10;;;;;;;;;;4985687;28;20035;-93
2024/01/06 05:44:44;;;;;;;0.10;0.10;;;;;;;;;;4991991;28;20014;-93
2024/01/06 05:47:10;;;;;;;0.10;0.10;;;;;;;;;;4990524;28;20015;-93
2024/01/06 05:49:36;;;;;;;0.10;0.10;;;;;;;;;;4997038;28;20110;-93
2024/01/06 05:52:01;;;;;;;0.10;0.10;;;;;;;;;;4990268;28;20086;-93
2024/01/06 05:54:28;;;;;;;0.10;0.10;;;;;;;;;;4991377;28;20023;-93
2024/01/06 05:56:54;;;;;;;0.10;0.10;;;;;;;;;;4989977;28;20041;-92
2024/01/06 05:59:20;;;;;;;0.10;0.10;;;;;;;;;;4988567;28;20027;-93
2024/01/06 06:01:46;;;;;;;0.10;0.10;;;;;;;;;;4988711;28;20034;-93
2024/01/06 06:04:12;;;;;;;0.10;0.10;;;;;;;;;;4988701;28;20122;-93
2024/01/06 06:06:38;;;;;;;0.10;0.10;;;;;;;;;;4992398;28;20018;-94
2024/01/06 06:09:06;;;;;;;0.10;0.10;;;;;;;;;;4989318;28;20012;-93
2024/01/06 06:11:33;;;;;;;0.10;0.10;;;;;;;;;;4992283;28;20023;-93
2024/01/06 06:13:59;;;;;;;0.10;0.10;;;;;;;;;;4994822;28;20058;-94
2024/01/06 06:16:25;;;;;;;0.10;0.10;;;;;;;;;;4991706;28;20050;-93
2024/01/06 06:18:51;;;;;;;0.10;0.10;;;;;;;;;;4992588;28;20038;-92
2024/01/06 06:21:17;;;;;;;0.10;0.10;;;;;;;;;;4991473;28;20035;-93
2024/01/06 06:23:43;;;;;;;0.10;0.10;;;;;;;;;;4995625;28;20023;-94
2024/01/06 06:26:09;;;;;;;0.10;0.10;;;;;;;;;;4993629;28;20011;-93
2024/01/06 06:28:35;;;;;;;0.10;0.10;;;;;;;;;;4991924;28;20019;-93
2024/01/06 06:31:02;;;;;;;0.10;0.10;;;;;;;;;;4993391;28;20038;-94
2024/01/06 06:33:28;;;;;;;0.10;0.10;;;;;;;;;;4980709;28;20057;-92
2024/01/06 06:35:54;;;;;;;0.10;0.10;;;;;;;;;;4990909;28;20007;-93
2024/01/06 06:38:21;;;;;;;0.10;0.10;;;;;;;;;;4993639;28;20069;-92
2024/01/06 06:40:47;;;;;;;0.10;0.10;;;;;;;;;;4993783;28;20007;-92
2024/01/06 06:43:14;;;;;;;0.10;0.10;;;;;;;;;;4992083;28;20086;-92
2024/01/06 06:45:40;;;;;;;0.10;0.10;;;;;;;;;;4979075;28;20086;-93
2024/01/06 06:48:06;;;;;;;0.10;0.10;;;;;;;;;;4990761;28;20087;-92
2024/01/06 06:50:33;;;;;;;0.10;0.10;;;;;;;;;;4980351;28;20038;-93
2024/01/06 06:53:00;;;;;;;0.10;0.10;;;;;;;;;;4992075;28;20041;-91
2024/01/06 06:55:27;;;;;;;0.10;0.10;;;;;;;;;;4993080;28;20038;-93
2024/01/06 06:57:53;;;;;;;0.10;0.10;;;;;;;;;;4990228;28;20039;-93
2024/01/06 07:00:19;;;;;;;0.10;0.10;;;;;;;;;;4995500;28;20007;-92
2024/01/06 07:02:46;;;;;;;0.10;0.10;;;;;;;;;;4991830;28;20038;-94
2024/01/06 07:05:12;;;;;;;0.10;0.10;;;;;;;;;;4991047;28;20011;-93
2024/01/06 07:07:38;;;;;;;0.00;0.00;;;;;;;;;;4994609;28;20095;-92
2024/01/06 07:10:05;;;;;;;0.10;0.10;;;;;;;;;;4993473;28;20014;-93
2024/01/06 07:12:34;;;;;;;0.10;0.10;;;;;;;;;;4995155;28;20086;-92
2024/01/06 07:15:00;;;;;;;0.05;0.05;;;;;;;;;;4995292;28;20011;-93
2024/01/06 07:17:26;;;;;;;0.10;0.10;;;;;;;;;;4997022;28;20027;-92
2024/01/06 07:19:53;;;;;;;0.00;0.00;;;;;;;;;;4998783;28;20557;-93
2024/01/06 07:22:19;;;;;;;0.10;0.10;;;;;;;;;;4998754;28;20073;-93
2024/01/06 07:24:46;;;;;;;0.10;0.10;;;;;;;;;;4988523;28;20027;-94
2024/01/06 07:27:12;;;;;;;0.10;0.10;;;;;;;;;;4994710;28;20087;-94
2024/01/06 07:29:38;;;;;;;0.10;0.10;;;;;;;;;;4988479;28;20026;-92
2024/01/06 07:32:06;;;;;;;0.10;0.10;;;;;;;;;;4991366;28;20004;-93
2024/01/06 07:34:32;;;;;;;0.05;0.05;;;;;;;;;;4989337;28;20027;-92
2024/01/06 07:36:58;;;;;;;0.10;0.10;;;;;;;;;;4994929;28;20019;-93
2024/01/06 07:39:24;;;;;;;0.10;0.10;;;;;;;;;;4994733;28;20109;-92
2024/01/06 07:41:51;;;;;;;0.10;0.10;;;;;;;;;;4990878;28;20015;-94
2024/01/06 07:44:22;;;;;;;0.10;0.10;;;;;;;;;;4998116;28;20019;-93
2024/01/06 07:46:48;;;;;;;0.10;0.10;;;;;;;;;;4988227;28;20034;-93
2024/01/06 07:49:17;;;;;;;0.10;0.10;;;;;;;;;;4991710;28;20082;-92
2024/01/06 07:51:43;;;;;;;0.10;0.10;;;;;;;;;;4993273;28;20018;-92
2024/01/06 07:54:09;;;;;;;0.10;0.10;;;;;;;;;;4987026;28;20015;-91
2024/01/06 07:56:35;;;;;;;0.10;0.10;;;;;;;;;;4989646;28;20035;-92
2024/01/06 07:59:04;;;;;;;0.10;0.10;;;;;;;;;;4990760;28;20019;-93
2024/01/06 08:01:31;;;;;;;0.10;0.10;;;;;;;;;;5009363;28;20120;-94
2024/01/06 08:03:57;;;;;;;0.10;0.10;;;;;;;;;;4986783;28;20050;-96
2024/01/06 08:06:23;;;;;;;0.10;0.10;;;;;;;;;;4995788;28;20034;-95
2024/01/06 08:08:49;;;;;;;0.10;0.10;;;;;;;;;;4986050;28;20035;-95
2024/01/06 08:11:15;;;;;;;0.00;0.00;;;;;;;;;;4989750;28;20045;-94
2024/01/06 08:13:41;;;;;;;0.10;0.10;;;;;;;;;;4993226;28;20031;-94
2024/01/06 08:16:07;;;;;;;0.00;0.00;;;;;;;;;;4982802;28;20020;-94
2024/01/06 08:18:33;;;;;;;0.10;0.10;;;;;;;;;;4989867;28;20044;-95
2024/01/06 08:20:59;;;;;;;0.10;0.10;;;;;;;;;;4988706;28;20026;-92
2024/01/06 08:23:25;;;;;;;0.10;0.10;;;;;;;;;;4982558;28;20082;-94
2024/01/06 08:25:51;;;;;;;0.10;0.10;;;;;;;;;;4990590;28;20035;-96
2024/01/06 08:28:18;;;;;;;0.10;0.10;;;;;;;;;;4987132;28;20052;-95
2024/01/06 08:30:44;;;;;;;0.10;0.10;;;;;;;;;;4985183;28;20079;-94
2024/01/06 08:33:10;;;;;;;0.10;0.10;;;;;;;;;;4990446;28;20053;-95
2024/01/06 08:35:40;;;;;;;0.10;0.10;;;;;;;;;;4986042;28;20360;-95
2024/01/06 08:38:07;;;;;;;0.10;0.10;;;;;;;;;;4987465;28;20035;-93
2024/01/06 08:40:33;;;;;;;0.10;0.10;;;;;;;;;;4994698;28;20045;-93
2024/01/06 08:42:59;;;;;;;0.10;0.10;;;;;;;;;;4986652;28;20107;-95
2024/01/06 08:45:25;;;;;;;0.10;0.10;;;;;;;;;;4983629;28;20019;-94
2024/01/06 08:47:50;;;;;;;0.05;0.05;;;;;;;;;;4988369;28;20007;-95
2024/01/06 08:50:16;;;;;;;0.10;0.10;;;;;;;;;;4990157;28;20078;-93
2024/01/06 08:52:42;;;;;;;0.10;0.10;;;;;;;;;;4992413;28;20053;-93
2024/01/06 08:55:08;;;;;;;0.10;0.10;;;;;;;;;;4988062;28;20065;-95
2024/01/06 08:57:34;;;;;;;0.00;0.00;;;;;;;;;;4992354;28;20035;-94
2024/01/06 09:00:00;;;;;;;0.10;0.10;;;;;;;;;;4986153;28;20082;-94
2024/01/06 09:02:26;;;;;;;0.10;0.10;;;;;;;;;;4989715;28;20030;-94
2024/01/06 09:04:52;;;;;;;0.10;0.10;;;;;;;;;;4990206;28;20042;-93
2024/01/06 09:07:18;;;;;;;0.10;0.10;;;;;;;;;;5004779;28;20011;-95
2024/01/06 09:09:44;;;;;;;0.10;0.10;;;;;;;;;;4983111;28;20019;-94
2024/01/06 09:12:10;;;;;;;0.10;0.10;;;;;;;;;;4989371;28;20046;-94
2024/01/06 09:14:36;;;;;;;0.00;0.00;;;;;;;;;;4984092;28;20428;-90
2024/01/06 09:17:34;;;;;;;;;;;;;;;;;;;;;
2024/01/06 09:20:23;;;;;;;;;;;;;;;;;;;;;
2024/01/06 10:24:59;;;;;;;0.10;0.10;;;5.40;99.90;;;;;;4989351;28;20051;-91
2024/01/06 10:27:26;;;;;;;0.10;0.10;;;;;;;;;;5063555;28;20026;-92
2024/01/06 10:29:52;;;;;;;0.10;0.10;;;;;;;;;;5049072;28;20117;-90
2024/01/06 10:32:18;;;;;;;0.10;0.10;;;5.50;99.90;;;;;;5049442;28;20106;-92
2024/01/06 10:37:17;;;;;;;0.10;0.10;;;;;;;;;;5065074;28;20049;-92
2024/01/06 10:39:44;;;;;;;0.10;0.10;;;;;;;;;;5059909;28;20033;-91
2024/01/06 10:42:12;;;;;;;0.00;0.00;;;;;;;;;;5058721;28;20055;-91
2024/01/06 10:44:39;;;;;;;0.10;0.10;;;5.50;99.90;;;;;;5054102;28;20484;-91
2024/01/06 10:47:06;;;;;;;0.10;0.10;;;5.50;99.90;;;;;;5049307;28;20036;-91
2024/01/06 10:49:32;;;;;;;0.10;0.10;;;;;;;;;;5052992;28;20263;-91
2024/01/06 10:51:58;;;;;;;0.10;0.10;;;;;;;;;;5052978;28;20056;-91
2024/01/06 10:54:26;;;;;;;0.10;0.10;;;5.60;99.90;;;;;;5048664;28;20110;-91
2024/01/06 10:56:52;;;;;;;0.10;0.10;;;;;;;;;;5048974;28;20033;-91
2024/01/06 10:59:22;;;;;;;0.10;0.10;;;5.70;99.90;;;;;;5046770;28;20107;-91
2024/01/06 11:01:50;;;;;;;0.10;0.10;;;5.70;99.90;;;;;;5042815;28;20025;-91
2024/01/06 11:04:16;;;;;;;0.10;0.10;;;;;;;;;;5051995;28;20029;-90
2024/01/06 11:06:42;;;;;;;0.10;0.10;;;;;;;;;;5058671;28;20035;-91
2024/01/06 11:09:26;;;;;;;0.10;0.10;;;5.80;99.90;;;;;;5051962;28;20120;-90
2024/01/06 11:11:53;;;;;;;0.10;0.10;;;5.90;99.90;;;;;;5049024;28;20037;-91
2024/01/06 11:14:24;;;;;;;0.10;0.10;;;5.90;99.90;;;;;;5047626;28;20025;-90
2024/01/06 11:16:50;;;;;;;0.10;0.10;;;;;;;;;;5050455;28;20124;-93
2024/01/06 11:19:43;;;;;;;0.10;0.10;;;5.90;99.90;;;;;;5046399;28;20426;-92
2024/01/06 11:22:20;;;;;;;0.10;0.10;;;5.80;99.90;;;;;;5053241;28;20025;-92
2024/01/06 11:24:49;;;;;;;0.10;0.10;;;5.90;99.90;;;;;;5050401;28;20578;-91
2024/01/06 11:27:29;;;;;;;0.10;0.10;;;5.90;99.90;;;;;;5045134;28;20138;-91
2024/01/06 11:29:56;;;;;;;;;;;5.70;99.90;;;;;;5048177;28;20044;-91
2024/01/06 11:32:25;;;;;;;0.10;0.10;;;5.90;99.90;;;;;;5047210;28;19919;-91
2024/01/06 11:41:11;;;;;;;0.10;0.10;;;;;;;;;;5086264;28;20036;-92
2024/01/06 11:43:39;;;;;;;0.10;0.10;;;5.90;99.90;;;;;;5065418;28;20044;-90
2024/01/06 11:46:06;;;;;;;0.10;0.10;;;6.00;99.90;;;;;;5067128;28;20012;-91
2024/01/06 11:48:33;;;;;;;0.10;0.10;;;;;;;;;;5067333;28;20104;-91
2024/01/06 11:50:59;;;;;;;0.10;0.10;;;;;;;;;;5066014;28;20025;-91
2024/01/06 11:53:27;;;;;;;0.03;0.03;;;6.00;99.90;;;;;;5063876;28;20012;-91
2024/01/06 11:55:53;;;;;;;0.10;0.10;;;;;;;;;;5068156;28;20012;-90
2024/01/06 11:58:19;;;;;;;0.10;0.10;;;;;;;;;;5067447;28;20647;-92
2024/01/06 12:00:55;;;;;;;0.10;0.10;;;6.10;99.90;;;;;;5066353;28;20028;-92
2024/01/06 12:03:21;;;;;;;0.10;0.10;;;;;;;;;;5066913;28;20037;-92
2024/01/06 12:06:00;;;;;;;0.10;0.10;;;6.10;99.90;;;;;;5073446;28;20127;-91
2024/01/06 12:08:27;;;;;;;0.10;0.10;;;;;;;;;;5070680;28;20025;-92
2024/01/06 12:11:04;;;;;;;0.10;0.10;;;6.00;99.90;;;;;;5070880;28;20151;-91
2024/01/06 12:13:30;;;;;;;0.10;0.10;;;;;;;;;;5054484;28;20036;-92
2024/01/06 12:15:56;;;;;;;0.10;0.10;;;;;;;;;;5063581;28;20031;-91
2024/01/06 12:18:26;;;;;;;0.10;0.10;;;;;;;;;;5064481;28;20052;-92
2024/01/06 12:20:53;;;;;;;0.10;0.10;;;6.00;99.90;;;;;;5068400;28;20028;-92
2024/01/06 12:23:29;;;;;;;0.10;0.10;;;6.00;99.90;;;;;;5061793;28;20070;-91
2024/01/06 12:25:55;;;;;;;0.10;0.10;;;;;;;;;;5067121;28;20030;-91
2024/01/06 12:28:21;;;;;;;0.10;0.10;;;;;;;;;;5064113;28;20032;-91
2024/01/06 12:30:47;;;;;;;0.10;0.10;;;;;;;;;;5068257;28;20128;-91
2024/01/06 12:33:14;;;;;;;0.10;0.10;;;;;;;;;;5058539;28;20060;-91
2024/01/06 12:35:41;;;;;;;0.00;0.00;;;;;;;;;;5064742;28;20051;-91
2024/01/06 12:38:48;;;;;;;0.10;0.10;;;5.80;99.90;;;;;;5063236;28;20082;-91
2024/01/06 13:51:34;;;;;;;;;;;5.70;99.90;;;;;;5009528;28;20038;-92
2024/01/06 13:54:00;;;;;;;0.10;0.10;;;;;;;;;;4993359;28;20392;-93
2024/01/06 13:56:26;;;;;;;0.10;0.10;;;;;;;;;;5001470;28;20030;-93
2024/01/06 13:58:52;;;;;;;0.10;0.10;;;;;;;;;;5001284;28;20065;-92
2024/01/06 14:01:18;;;;;;;0.10;0.10;;;;;;;;;;5005467;28;20034;-92
2024/01/06 14:03:44;;;;;;;0.10;0.10;;;;;;;;;;5006558;28;20149;-93
2024/01/06 14:06:10;;;;;;;0.10;0.10;;;;;;;;;;4991531;28;20026;-92
2024/01/06 14:08:36;;;;;;;0.10;0.10;;;;;;;;;;4995070;28;20025;-93
2024/01/06 14:11:02;;;;;;;0.10;0.10;;;;;;;;;;4995500;28;20030;-93
2024/01/06 14:21:18;;;;;;;0.10;0.10;;;;;;;;;;4993016;28;20042;-90
2024/01/06 14:23:44;;;;;;;0.10;0.10;;;;;;;;;;4993640;28;20023;-90
2024/01/06 14:26:10;;;;;;;0.10;0.10;;;;;;;;;;5065770;28;20056;-91
2024/01/06 14:28:36;;;;;;;0.10;0.10;;;;;;;;;;5062831;28;20489;-91
2024/01/06 14:31:02;;;;;;;0.00;0.00;;;;;;;;;;5055911;28;20050;-91
2024/01/06 14:33:28;;;;;;;0.10;0.10;;;;;;;;;;5062850;28;20017;-91
2024/01/06 14:35:54;;;;;;;0.00;0.00;;;;;;;;;;5074449;28;20440;-90
2024/01/06 14:38:20;;;;;;;0.10;0.10;;;;;;;;;;5064086;28;20330;-90
2024/01/06 14:40:46;;;;;;;0.10;0.10;;;;;;;;;;5069238;28;20037;-91
2024/01/06 14:43:12;;;;;;;0.10;0.10;;;;;;;;;;5058724;28;20027;-91
2024/01/06 14:45:38;;;;;;;0.10;0.10;;;;;;;;;;5062602;28;20090;-90
2024/01/06 14:48:04;;;;;;;0.10;0.10;;;;;;;;;;5058690;28;20030;-90
2024/01/06 14:50:30;;;;;;;0.00;0.00;;;;;;;;;;5071849;28;20527;-90
2024/01/06 14:52:56;;;;;;;0.10;0.10;;;;;;;;;;5063075;28;20034;-90
2024/01/06 14:55:22;;;;;;;0.10;0.10;;;;;;;;;;5059545;28;20035;-90
2024/01/06 14:57:48;;;;;;;0.00;0.00;;;;;;;;;;5059579;28;20034;-90
2024/01/06 15:00:14;;;;;;;0.10;0.10;;;;;;;;;;5067623;28;20026;-89
2024/01/06 15:02:40;;;;;;;0.10;0.10;;;;;;;;;;5075401;28;20018;-90
2024/01/06 15:05:07;;;;;;;0.10;0.10;;;;;;;;;;5067719;28;20035;-90
2024/01/06 15:07:33;;;;;;;0.10;0.10;;;;;;;;;;5071807;28;20034;-90
2024/01/06 15:10:05;;;;;;;0.10;0.10;;;;;;;;;;5049379;28;20049;-91
2024/01/06 15:12:31;;;;;;;0.10;0.10;;;;;;;;;;5057930;28;20034;-92
2024/01/06 15:14:58;;;;;;;0.10;0.10;;;;;;;;;;5062371;28;20026;-91
2024/01/06 15:17:24;;;;;;;0.10;0.10;;;;;;;;;;5068493;28;20030;-89
2024/01/06 15:19:50;;;;;;;0.03;0.03;;;;;;;;;;5050490;28;20068;-91
2024/01/06 15:22:16;;;;;;;0.10;0.10;;;;;;;;;;5061180;28;20033;-87
2024/01/06 15:24:44;;;;;;;0.00;0.00;;;;;;;;;;5055282;28;20034;-91
2024/01/06 15:27:10;;;;;;;0.10;0.10;;;;;;;;;;5059694;28;20122;-90
2024/01/06 15:29:36;;;;;;;0.10;0.10;;;;;;;;;;5059628;28;20030;-90
2024/01/06 15:32:02;;;;;;;0.10;0.10;;;;;;;;;;5058685;28;20088;-89
2024/01/06 15:34:28;;;;;;;0.10;0.10;;;;;;;;;;5050033;28;20134;-90
2024/01/06 15:36:54;;;;;;;0.10;0.10;;;;;;;;;;5049902;28;20086;-89
2024/01/06 15:39:21;;;;;;;0.10;0.10;;;;;;;;;;5047926;28;20091;-90
2024/01/06 15:41:47;;;;;;;0.00;0.00;;;;;;;;;;5048757;28;20324;-89
2024/01/06 15:44:13;;;;;;;0.10;0.10;;;;;;;;;;5047315;28;20027;-89
2024/01/06 15:46:39;;;;;;;0.10;0.10;;;;;;;;;;5043216;28;20027;-90
2024/01/06 15:49:05;;;;;;;0.10;0.10;;;;;;;;;;5053112;28;20225;-90
2024/01/06 15:51:31;;;;;;;0.10;0.10;;;;;;;;;;5048951;28;20124;-90
2024/01/06 15:53:59;;;;;;;0.10;0.10;;;;;;;;;;5044355;28;20098;-90
2024/01/06 15:56:24;;;;;;;0.10;0.10;;;;;;;;;;5044244;28;20027;-89
2024/01/06 15:58:54;;;;;;;0.05;0.05;;;;;;;;;;5051311;28;20038;-90
2024/01/06 16:01:20;;;;;;;0.10;0.10;;;;;;;;;;5055701;28;20018;-90
2024/01/06 16:03:45;;;;;;;0.00;0.00;;;;;;;;;;5054693;28;20049;-88
2024/01/06 16:06:12;;;;;;;0.10;0.10;;;;;;;;;;5046425;28;20096;-89
2024/01/06 16:08:37;;;;;;;0.10;0.10;;;;;;;;;;5051677;28;20031;-90
2024/01/06 16:11:04;;;;;;;0.10;0.10;;;;;;;;;;5053132;28;20504;-88
2024/01/06 16:13:30;;;;;;;0.00;0.00;;;;;;;;;;5051986;28;20417;-91
2024/01/06 16:15:56;;;;;;;0.10;0.10;;;;;;;;;;5055809;28;20037;-89
2024/01/06 16:18:22;;;;;;;0.05;0.05;;;;;;;;;;5060389;28;20042;-88
2024/01/06 16:20:48;;;;;;;0.10;0.10;;;;;;;;;;5057075;28;20523;-90
2024/01/06 16:23:15;;;;;;;0.10;0.10;;;;;;;;;;5051045;28;20018;-88
2024/01/06 16:25:42;;;;;;;0.10;0.10;;;;;;;;;;5056526;28;20038;-90
2024/01/06 16:28:11;;;;;;;0.10;0.10;;;;;;;;;;5063212;28;20056;-89
2024/01/06 16:30:37;;;;;;;0.10;0.10;;;;;;;;;;5057108;28;20091;-90
2024/01/06 16:33:04;;;;;;;0.10;0.10;;;;;;;;;;5063266;28;20121;-91
2024/01/06 16:35:29;;;;;;;0.10;0.10;;;;;;;;;;5055824;28;20054;-90
2024/01/06 16:37:57;;;;;;;0.08;0.08;;;;;;;;;;5044978;28;20441;-88
2024/01/06 16:40:23;;;;;;;0.10;0.10;;;;;;;;;;5040504;28;20113;-89
2024/01/06 16:42:51;;;;;;;0.10;0.10;;;;;;;;;;5047226;28;20518;-90
2024/01/06 16:45:18;;;;;;;0.10;0.10;;;;;;;;;;5049365;28;20037;-90
2024/01/06 16:47:44;;;;;;;0.10;0.10;;;;;;;;;;5051249;28;20031;-90
2024/01/06 16:50:10;;;;;;;0.10;0.10;;;;;;;;;;5048351;28;20057;-91
2024/01/06 16:52:37;;;;;;;0.10;0.10;;;;;;;;;;5048193;28;20057;-90
2024/01/06 16:55:04;;;;;;;0.00;0.00;;;;;;;;;;5046342;28;20038;-89
2024/01/06 16:57:31;;;;;;;0.00;0.00;;;;;;;;;;5042131;28;20034;-89
2024/01/06 16:59:57;;;;;;;0.10;0.10;;;;;;;;;;5043525;28;20031;-89
2024/01/06 17:02:24;;;;;;;0.10;0.10;;;;;;;;;;5046503;28;20035;-89
2024/01/06 17:04:50;;;;;;;0.10;0.10;;;;;;;;;;5041502;28;20053;-89
2024/01/06 17:07:16;;;;;;;0.10;0.10;;;;;;;;;;5055016;28;20035;-90
2024/01/06 17:09:44;;;;;;;0.10;0.10;;;;;;;;;;5054610;28;20125;-91
2024/01/06 17:12:10;;;;;;;0.10;0.10;;;;;;;;;;5052675;28;20041;-90
2024/01/06 17:14:36;;;;;;;0.10;0.10;;;;;;;;;;5051164;28;20038;-89
2024/01/06 17:17:02;;;;;;;0.10;0.10;;;;;;;;;;5042597;28;20452;-90
2024/01/06 17:19:28;;;;;;;0.00;0.00;;;;;;;;;;5049680;28;20115;-91
2024/01/06 17:21:54;;;;;;;0.10;0.10;;;;;;;;;;5039130;28;20041;-91
2024/01/06 17:24:20;;;;;;;0.10;0.10;;;;;;;;;;5041592;28;20027;-92
2024/01/06 17:26:49;;;;;;;0.10;0.10;;;3.40;99.90;;;;;;5039978;28;20451;-89
2024/01/06 17:29:15;;;;;;;0.10;0.10;;;;;;;;;;5048916;28;20031;-87
2024/01/06 17:31:41;;;;;;;0.00;0.00;;;;;;;;;;5052204;28;20607;-90
2024/01/06 17:34:08;;;;;;;0.10;0.10;;;;;;;;;;5050952;28;20538;-88
2024/01/06 17:36:34;;;;;;;0.10;0.10;;;;;;;;;;5049964;28;20041;-89
2024/01/06 17:39:00;;;;;;;0.10;0.10;;;;;;;;;;5041309;28;20113;-88
2024/01/06 17:41:26;;;;;;;0.10;0.10;;;;;;;;;;5059220;28;20679;-90
2024/01/06 17:43:55;;;;;;;0.10;0.10;;;;;;;;;;5038661;28;20026;-88
2024/01/06 17:46:21;;;;;;;0.00;0.00;;;3.30;99.90;;;;;;5044266;28;20030;-88
2024/01/06 17:48:47;;;;;;;0.00;0.00;;;;;;;;;;5043820;28;20039;-88
2024/01/06 17:51:13;;;;;;;0.00;0.00;;;;;;;;;;5037257;28;20034;-87
2024/01/06 17:53:39;;;;;;;0.10;0.10;;;;;;;;;;5037250;28;21393;-88